createdAt,value
2023-03-29T00:04:36.000Z,1009.7
2023-03-29T00:09:42.087Z,1009.5
2023-03-29T00:14:48.188Z,1009.4
2023-03-29T00:19:54.283Z,1009.4
2023-03-29T00:25:00.382Z,1009.4
2023-03-29T00:30:06.476Z,1009.4
2023-03-29T00:35:12.573Z,1009.4
2023-03-29T00:40:18.666Z,1009.3
2023-03-29T00:45:24.772Z,1009.3
2023-03-29T00:50:30.869Z,1009.3
2023-03-29T00:55:35.992Z,1009.2
2023-03-29T01:00:42.100Z,1009.2
2023-03-29T01:05:48.189Z,1009.1
2023-03-29T01:10:54.282Z,1009
2023-03-29T01:16:00.389Z,1008.9
2023-03-29T01:21:06.491Z,1008.8
2023-03-29T01:26:12.589Z,1008.7
2023-03-29T01:31:18.678Z,1008.6
2023-03-29T01:36:24.782Z,1008.5
2023-03-29T01:41:30.871Z,1008.3
2023-03-29T01:46:36.975Z,1008.3
2023-03-29T01:51:43.070Z,1008.2
2023-03-29T01:56:49.181Z,1008.1
2023-03-29T02:01:54.288Z,1008.1
2023-03-29T02:07:00.386Z,1008.1
2023-03-29T02:12:06.505Z,1008
2023-03-29T02:17:12.574Z,1008
2023-03-29T02:22:18.675Z,1008
2023-03-29T02:27:24.780Z,1008
2023-03-29T02:32:30.887Z,1007.8
2023-03-29T02:37:36.965Z,1007.7
2023-03-29T02:42:43.072Z,1007.8
2023-03-29T02:47:49.175Z,1007.7
2023-03-29T02:52:55.287Z,1007.6
2023-03-29T02:58:01.390Z,1007.4
2023-03-29T03:03:07.498Z,1007.5
2023-03-29T03:08:12.595Z,1007.3
2023-03-29T03:13:18.681Z,1007.3
2023-03-29T03:18:24.790Z,1007.2
2023-03-29T03:23:30.872Z,1007.4
2023-03-29T03:28:36.999Z,1007.3
2023-03-29T03:33:43.092Z,1007.4
2023-03-29T03:38:49.188Z,1007.3
2023-03-29T03:43:55.282Z,1007.2
2023-03-29T03:49:01.407Z,1007.2
2023-03-29T03:54:07.501Z,1007.2
2023-03-29T03:59:13.596Z,1007.1
2023-03-29T04:04:19.679Z,1007.2
2023-03-29T04:09:25.770Z,1007.3
2023-03-29T04:14:31.863Z,1007.3
2023-03-29T04:19:36.990Z,1007.3
2023-03-29T04:24:43.090Z,1007.3
2023-03-29T04:29:49.180Z,1007.3
2023-03-29T04:34:55.272Z,1007.2
2023-03-29T04:40:01.366Z,1007.1
2023-03-29T04:45:07.533Z,1007.1
2023-03-29T04:50:13.579Z,1007
2023-03-29T04:55:19.696Z,1006.9
2023-03-29T05:00:25.768Z,1006.9
2023-03-29T05:05:31.879Z,1006.9
2023-03-29T05:15:44.060Z,1006.8
2023-03-29T05:20:50.209Z,1006.8
2023-03-29T05:25:55.290Z,1006.8
2023-03-29T05:31:01.388Z,1006.7
2023-03-29T05:36:07.527Z,1006.8
2023-03-29T05:41:13.583Z,1006.7
2023-03-29T05:46:19.679Z,1006.6
2023-03-29T05:51:25.772Z,1006.6
2023-03-29T05:56:31.861Z,1006.6
2023-03-29T06:01:37.995Z,1006.6
2023-03-29T06:06:44.069Z,1006.7
2023-03-29T06:11:50.181Z,1006.7
2023-03-29T06:16:56.261Z,1006.5
2023-03-29T06:22:02.369Z,1006.6
2023-03-29T06:27:08.461Z,1006.4
2023-03-29T06:32:13.570Z,1006.5
2023-03-29T06:37:19.670Z,1006.4
2023-03-29T06:42:25.782Z,1006.4
2023-03-29T06:47:31.886Z,1006.4
2023-03-29T06:52:37.997Z,1006.5
2023-03-29T06:57:44.072Z,1006.5
2023-03-29T07:02:50.155Z,1006.5
2023-03-29T07:07:56.284Z,1006.4
2023-03-29T07:13:02.373Z,1006.4
2023-03-29T07:18:08.469Z,1006.4
2023-03-29T07:23:14.550Z,1006.4
2023-03-29T07:28:20.674Z,1006.5
2023-03-29T07:33:26.746Z,1006.6
2023-03-29T07:38:31.905Z,1006.6
2023-03-29T07:43:37.992Z,1006.7
2023-03-29T07:48:44.111Z,1006.7
2023-03-29T07:53:50.152Z,1006.6
2023-03-29T07:58:56.265Z,1006.6
2023-03-29T08:04:02.393Z,1006.7
2023-03-29T08:09:08.440Z,1006.6
2023-03-29T08:14:14.547Z,1006.7
2023-03-29T08:19:20.657Z,1006.6
2023-03-29T08:24:26.753Z,1006.5
2023-03-29T08:29:32.833Z,1006.5
2023-03-29T08:34:38.946Z,1006.5
2023-03-29T08:39:45.029Z,1006.5
2023-03-29T08:44:50.153Z,1006.4
2023-03-29T08:49:56.275Z,1006.3
2023-03-29T08:55:02.347Z,1006.1
2023-03-29T09:00:08.428Z,1006.1
2023-03-29T09:05:14.528Z,1006.2
2023-03-29T09:10:20.631Z,1006.1
2023-03-29T09:15:26.732Z,1006.1
2023-03-29T09:20:32.818Z,1006.1
2023-03-29T09:25:38.924Z,1006.1
2023-03-29T09:30:45.014Z,1006.1
2023-03-29T09:35:51.111Z,1006.1
2023-03-29T09:40:57.225Z,1006.1
2023-03-29T09:46:03.311Z,1006
2023-03-29T09:51:08.422Z,1006
2023-03-29T09:56:14.515Z,1006
2023-03-29T10:01:20.656Z,1005.9
2023-03-29T10:06:26.715Z,1005.8
2023-03-29T10:11:32.813Z,1005.9
2023-03-29T10:16:37.940Z,1005.8
2023-03-29T10:21:44.035Z,1005.8
2023-03-29T10:26:50.134Z,1005.8
2023-03-29T10:31:56.280Z,1005.8
2023-03-29T10:37:02.337Z,1005.6
2023-03-29T10:42:08.427Z,1005.6
2023-03-29T10:47:14.511Z,1005.5
2023-03-29T10:52:20.596Z,1005.4
2023-03-29T10:57:26.714Z,1005.3
2023-03-29T11:02:32.799Z,1005.2
2023-03-29T11:07:38.894Z,1005.1
2023-03-29T11:12:44.999Z,1005.1
2023-03-29T11:17:51.108Z,1005.1
2023-03-29T11:22:56.198Z,1005.1
2023-03-29T11:28:02.285Z,1005.1
2023-03-29T11:33:08.460Z,1005.1
2023-03-29T11:38:14.496Z,1005.1
2023-03-29T11:43:20.579Z,1005.1
2023-03-29T11:48:26.696Z,1005
2023-03-29T11:53:32.802Z,1005
2023-03-29T11:58:38.878Z,1004.9
2023-03-29T12:03:44.993Z,1004.8
2023-03-29T12:08:51.071Z,1004.7
2023-03-29T12:13:57.169Z,1004.5
2023-03-29T12:19:03.270Z,1004.5
2023-03-29T12:24:09.432Z,1004.5
2023-03-29T12:29:14.475Z,1004.4
2023-03-29T12:34:20.594Z,1004.3
2023-03-29T12:39:26.666Z,1004.4
2023-03-29T12:44:32.770Z,1004.3
2023-03-29T12:49:38.861Z,1004.2
2023-03-29T12:54:44.998Z,1004.1
2023-03-29T12:59:51.069Z,1004.2
2023-03-29T13:04:57.161Z,1004.1
2023-03-29T13:10:03.298Z,1004.1
2023-03-29T13:15:09.337Z,1004
2023-03-29T13:20:15.415Z,1004
2023-03-29T13:25:21.525Z,1004
2023-03-29T13:30:27.662Z,1003.9
2023-03-29T13:35:32.721Z,1003.9
2023-03-29T13:40:38.833Z,1003.8
2023-03-29T13:45:44.928Z,1003.9
2023-03-29T13:50:51.006Z,1003.9
2023-03-29T13:55:57.101Z,1003.8
2023-03-29T14:01:03.224Z,1003.8
2023-03-29T14:06:09.294Z,1003.8
2023-03-29T14:11:15.409Z,1003.8
2023-03-29T14:16:21.487Z,1003.8
2023-03-29T14:21:27.580Z,1003.8
2023-03-29T14:26:33.689Z,1003.8
2023-03-29T14:31:39.790Z,1003.7
2023-03-29T14:36:45.874Z,1003.6
2023-03-29T14:41:50.974Z,1003.5
2023-03-29T14:46:57.076Z,1003.5
2023-03-29T14:52:03.325Z,1003.3
2023-03-29T14:57:09.273Z,1003.2
2023-03-29T15:02:15.362Z,1003.2
2023-03-29T15:07:21.446Z,1003.3
2023-03-29T15:12:27.542Z,1003.2
2023-03-29T15:17:33.653Z,1003.2
2023-03-29T15:22:39.739Z,1003.2
2023-03-29T15:27:45.863Z,1003.2
2023-03-29T15:32:51.932Z,1003.2
2023-03-29T15:37:58.027Z,1003.3
2023-03-29T15:43:04.143Z,1003.3
2023-03-29T15:48:09.224Z,1003.3
2023-03-29T15:53:15.337Z,1003.2
2023-03-29T15:58:21.446Z,1003.1
2023-03-29T16:03:27.561Z,1003.1
2023-03-29T16:08:33.647Z,1003
2023-03-29T16:13:39.725Z,1002.9
2023-03-29T16:18:45.810Z,1002.8
2023-03-29T16:23:51.907Z,1002.8
2023-03-29T16:28:58.029Z,1002.8
2023-03-29T16:34:04.103Z,1002.8
2023-03-29T16:39:10.199Z,1002.9
2023-03-29T16:44:16.321Z,1002.9
2023-03-29T16:49:22.398Z,1002.8
2023-03-29T16:54:27.514Z,1002.7
2023-03-29T16:59:33.614Z,1002.6
2023-03-29T17:04:39.708Z,1002.5
2023-03-29T17:09:45.811Z,1002.5
2023-03-29T17:14:51.907Z,1002.6
2023-03-29T17:19:57.981Z,1002.6
2023-03-29T17:25:04.105Z,1002.7
2023-03-29T17:30:10.175Z,1002.6
2023-03-29T17:35:16.295Z,1002.7
2023-03-29T17:40:22.395Z,1002.6
2023-03-29T17:45:28.478Z,1002.6
2023-03-29T17:50:34.625Z,1002.7
2023-03-29T17:55:40.696Z,1002.7
2023-03-29T18:00:45.779Z,1002.7
2023-03-29T18:05:51.881Z,1002.8
2023-03-29T18:10:57.983Z,1002.8
2023-03-29T18:16:04.058Z,1002.8
2023-03-29T18:21:10.182Z,1002.7
2023-03-29T18:26:16.267Z,1002.7
2023-03-29T18:31:22.371Z,1002.8
2023-03-29T18:36:28.495Z,1002.8
2023-03-29T18:41:34.572Z,1002.8
2023-03-29T18:46:40.668Z,1002.7
2023-03-29T18:51:46.764Z,1002.7
2023-03-29T18:56:52.863Z,1002.6
2023-03-29T19:01:58.945Z,1002.5
2023-03-29T19:07:04.118Z,1002.5
2023-03-29T19:12:10.192Z,1002.4
2023-03-29T19:17:16.247Z,1002.4
2023-03-29T19:22:22.403Z,1002.4
2023-03-29T19:27:28.512Z,1002.3
2023-03-29T19:32:34.543Z,1002.2
2023-03-29T19:37:40.656Z,1002.3
2023-03-29T19:42:46.785Z,1002.3
2023-03-29T19:47:52.828Z,1002.2
2023-03-29T19:52:58.942Z,1002.1
2023-03-29T19:58:05.025Z,1002.1
2023-03-29T20:03:11.131Z,1001.9
2023-03-29T20:08:17.225Z,1001.9
2023-03-29T20:13:22.337Z,1002
2023-03-29T20:18:28.438Z,1001.9
2023-03-29T20:23:34.531Z,1001.9
2023-03-29T20:28:40.615Z,1001.8
2023-03-29T20:33:46.735Z,1001.8
2023-03-29T20:38:52.826Z,1001.8
2023-03-29T20:43:58.956Z,1001.8
2023-03-29T20:49:05.005Z,1001.8
2023-03-29T20:54:11.111Z,1001.7
2023-03-29T20:59:17.206Z,1001.8
2023-03-29T21:04:23.311Z,1001.6
2023-03-29T21:09:29.411Z,1001.7
2023-03-29T21:14:35.576Z,1001.5
2023-03-29T21:19:40.612Z,1001.6
2023-03-29T21:24:46.715Z,1001.4
2023-03-29T21:29:52.811Z,1001.5
2023-03-29T21:34:58.886Z,1001.4
2023-03-29T21:40:05.062Z,1001.3
2023-03-29T21:45:11.103Z,1001.3
2023-03-29T21:50:17.212Z,1001.3
2023-03-29T21:55:23.333Z,1001.3
2023-03-29T22:00:29.394Z,1001.2
2023-03-29T22:05:35.556Z,1001.1
2023-03-29T22:10:41.677Z,1001.2
2023-03-29T22:15:47.691Z,1001.1
2023-03-29T22:20:53.780Z,1001.1
2023-03-29T22:25:58.966Z,1001
2023-03-29T22:31:05.009Z,1000.9
2023-03-29T22:36:11.069Z,1000.8
2023-03-29T22:41:17.185Z,1000.7
2023-03-29T22:46:23.280Z,1000.4
2023-03-29T22:51:29.370Z,1000
2023-03-29T22:56:35.458Z,1000
2023-03-29T23:01:41.557Z,1000.4
2023-03-29T23:06:47.657Z,1000.5
2023-03-29T23:11:53.742Z,1000.4
2023-03-29T23:16:59.856Z,1000.3
2023-03-29T23:22:05.946Z,1000.2
2023-03-29T23:27:12.044Z,1000.2
2023-03-29T23:32:17.168Z,1000
2023-03-29T23:37:23.267Z,1000
2023-03-29T23:42:29.339Z,999.8
2023-03-29T23:47:35.447Z,999.9
2023-03-29T23:52:41.538Z,999.7
2023-03-29T23:57:47.663Z,999.6
